createdAt,value
2022-09-28T00:01:07.844Z,14.03
2022-09-28T00:06:11.803Z,14.01
2022-09-28T00:11:16.232Z,14.09
2022-09-28T00:16:21.604Z,13.99
2022-09-28T00:21:26.086Z,13.78
2022-09-28T00:26:30.143Z,13.68
2022-09-28T00:31:35.542Z,13.38
2022-09-28T00:36:44.937Z,13.47
2022-09-28T00:41:48.860Z,13.35
2022-09-28T00:46:56.382Z,13.15
2022-09-28T00:52:00.155Z,13.17
2022-09-28T00:57:04.202Z,13.07
2022-09-28T01:02:10.501Z,13.08
2022-09-28T01:07:14.600Z,13.06
2022-09-28T01:12:17.494Z,12.96
2022-09-28T01:17:26.584Z,12.72
2022-09-28T01:22:37.190Z,12.86
2022-09-28T01:27:44.259Z,12.81
2022-09-28T01:32:50.978Z,12.69
2022-09-28T01:37:54.913Z,12.58
2022-09-28T01:43:01.980Z,12.71
2022-09-28T01:48:07.317Z,12.75
2022-09-28T01:53:14.773Z,12.79
2022-09-28T01:58:21.640Z,12.74
2022-09-28T02:03:27.117Z,12.77
2022-09-28T02:08:32.575Z,12.85
2022-09-28T02:13:38.583Z,12.89
2022-09-28T02:18:41.727Z,12.90
2022-09-28T02:23:50.977Z,12.76
2022-09-28T02:28:55.280Z,12.75
2022-09-28T02:33:58.643Z,12.77
2022-09-28T02:39:02.420Z,12.67
2022-09-28T02:44:13.355Z,12.62
2022-09-28T02:49:22.703Z,12.53
2022-09-28T02:54:36.562Z,12.61
2022-09-28T02:59:45.638Z,12.77
2022-09-28T03:04:54.919Z,12.64
2022-09-28T03:10:02.671Z,12.65
2022-09-28T03:15:11.958Z,12.65
2022-09-28T03:20:14.942Z,12.71
2022-09-28T03:25:18.182Z,12.87
2022-09-28T03:30:23.052Z,12.90
2022-09-28T03:35:26.079Z,12.94
2022-09-28T03:40:29.002Z,12.96
2022-09-28T03:45:33.387Z,12.91
2022-09-28T03:50:36.384Z,12.97
2022-09-28T03:55:39.384Z,13.05
2022-09-28T04:00:43.954Z,13.04
2022-09-28T04:05:50.258Z,13.00
2022-09-28T04:10:53.371Z,13.07
2022-09-28T04:15:58.708Z,13.03
2022-09-28T04:21:03.662Z,12.89
2022-09-28T04:26:07.541Z,12.85
2022-09-28T04:31:12.842Z,12.92
2022-09-28T04:36:15.946Z,12.75
2022-09-28T04:41:18.853Z,12.64
2022-09-28T04:46:23.146Z,12.57
2022-09-28T04:51:26.042Z,12.62
2022-09-28T04:56:28.950Z,12.61
2022-09-28T05:01:33.260Z,12.62
2022-09-28T05:06:36.270Z,12.64
2022-09-28T05:11:39.201Z,12.47
2022-09-28T05:16:43.559Z,12.48
2022-09-28T05:21:46.992Z,12.55
2022-09-28T05:26:49.928Z,12.58
2022-09-28T05:31:54.255Z,12.33
2022-09-28T05:36:57.209Z,12.38
2022-09-28T05:42:00.152Z,12.38
2022-09-28T05:47:04.450Z,12.38
2022-09-28T05:52:07.381Z,12.48
2022-09-28T05:57:10.518Z,12.51
2022-09-28T06:02:14.930Z,12.33
2022-09-28T06:07:18.018Z,12.32
2022-09-28T06:12:21.049Z,12.37
2022-09-28T06:17:25.492Z,12.56
2022-09-28T06:22:30.542Z,12.42
2022-09-28T06:27:33.560Z,12.41
2022-09-28T06:32:37.939Z,12.44
2022-09-28T06:37:40.886Z,12.44
2022-09-28T06:42:43.870Z,12.44
2022-09-28T06:47:53.267Z,12.59
2022-09-28T06:52:59.786Z,12.62
2022-09-28T06:58:03.631Z,12.64
2022-09-28T07:03:09.106Z,12.80
2022-09-28T07:08:12.623Z,12.82
2022-09-28T07:13:41.107Z,12.90
2022-09-28T07:18:42.206Z,12.76
2022-09-28T07:23:52.467Z,12.84
2022-09-28T07:28:56.616Z,12.89
2022-09-28T07:34:00.943Z,12.85
2022-09-28T07:39:04.055Z,12.82
2022-09-28T07:44:07.145Z,12.88
2022-09-28T07:49:12.798Z,12.85
2022-09-28T07:54:15.771Z,12.95
2022-09-28T07:59:20.397Z,13.05
2022-09-28T08:04:25.441Z,13.22
2022-09-28T08:09:28.412Z,13.16
2022-09-28T08:14:34.031Z,12.99
2022-09-28T08:19:55.952Z,13.13
2022-09-28T08:24:58.952Z,13.45
2022-09-28T08:30:01.887Z,13.42
2022-09-28T08:35:06.995Z,13.19
2022-09-28T08:40:14.446Z,13.31
2022-09-28T08:45:22.148Z,13.55
2022-09-28T08:50:30.006Z,13.61
2022-09-28T08:55:34.727Z,13.71
2022-09-28T09:00:40.958Z,13.83
2022-09-28T09:05:56.141Z,14.05
2022-09-28T09:11:03.566Z,14.18
2022-09-28T09:16:10.299Z,14.16
2022-09-28T09:21:16.134Z,14.21
2022-09-28T09:26:24.999Z,14.40
2022-09-28T09:31:38.299Z,14.57
2022-09-28T09:36:50.171Z,14.60
2022-09-28T09:42:02.432Z,14.97
2022-09-28T09:47:08.197Z,15.44
2022-09-28T09:52:18.563Z,15.52
2022-09-28T09:57:23.788Z,15.67
2022-09-28T10:02:28.360Z,15.94
2022-09-28T10:07:42.590Z,15.74
2022-09-28T10:12:49.515Z,15.93
2022-09-28T10:17:53.011Z,15.87
2022-09-28T10:23:02.103Z,15.84
2022-09-28T10:28:06.528Z,16.01
2022-09-28T10:33:28.030Z,16.80
2022-09-28T10:38:32.911Z,16.67
2022-09-28T10:43:38.728Z,16.10
2022-09-28T10:48:49.463Z,16.81
2022-09-28T10:54:01.863Z,17.62
2022-09-28T10:59:23.428Z,16.99
2022-09-28T11:04:28.607Z,17.51
2022-09-28T11:09:34.687Z,17.14
2022-09-28T11:14:42.423Z,16.81
2022-09-28T11:19:46.167Z,16.53
2022-09-28T11:24:50.616Z,16.29
2022-09-28T11:29:56.755Z,17.76
2022-09-28T11:35:01.170Z,17.20
2022-09-28T11:40:12.925Z,16.58
2022-09-28T11:45:33.270Z,16.28
2022-09-28T11:50:42.341Z,16.22
2022-09-28T11:55:48.439Z,16.09
2022-09-28T12:00:55.682Z,15.94
2022-09-28T12:06:01.152Z,15.98
2022-09-28T12:11:09.835Z,16.55
2022-09-28T12:16:38.975Z,16.53
2022-09-28T12:21:43.994Z,17.57
2022-09-28T12:26:50.995Z,19.31
2022-09-28T12:31:59.233Z,18.83
2022-09-28T12:37:08.427Z,18.73
2022-09-28T12:42:22.406Z,17.49
2022-09-28T12:47:37.916Z,16.99
2022-09-28T12:52:45.395Z,18.35
2022-09-28T12:57:57.416Z,18.82
2022-09-28T13:03:19.182Z,17.46
2022-09-28T13:08:30.262Z,17.33
2022-09-28T13:13:39.771Z,19.07
2022-09-28T13:18:48.607Z,19.23
2022-09-28T13:24:00.770Z,19.42
2022-09-28T13:29:14.688Z,18.80
2022-09-28T13:34:20.619Z,18.25
2022-09-28T13:39:37.487Z,18.61
2022-09-28T13:45:00.312Z,18.56
2022-09-28T13:50:14.242Z,18.46
2022-09-28T13:55:24.975Z,18.24
2022-09-28T14:00:31.468Z,17.90
2022-09-28T14:05:48.625Z,17.55
2022-09-28T14:10:52.722Z,17.25
2022-09-28T14:16:17.196Z,17.19
2022-09-28T14:21:40.317Z,16.94
2022-09-28T14:27:01.766Z,16.79
2022-09-28T14:32:22.175Z,16.64
2022-09-28T14:37:45.634Z,16.62
2022-09-28T14:43:03.458Z,16.41
2022-09-28T14:48:15.781Z,16.32
2022-09-28T14:53:23.961Z,16.19
2022-09-28T14:58:27.637Z,16.24
2022-09-28T15:03:33.443Z,16.12
2022-09-28T15:08:37.408Z,16.03
2022-09-28T15:13:40.856Z,15.98
2022-09-28T15:19:10.713Z,15.94
2022-09-28T15:24:27.284Z,15.89
2022-09-28T15:29:33.445Z,15.75
2022-09-28T15:34:51.889Z,15.61
2022-09-28T15:39:55.809Z,15.59
2022-09-28T15:45:03.493Z,15.48
2022-09-28T15:50:09.302Z,15.43
2022-09-28T15:55:20.397Z,15.37
2022-09-28T16:00:25.373Z,15.34
2022-09-28T16:05:36.021Z,15.31
2022-09-28T16:10:52.001Z,15.29
2022-09-28T16:15:58.224Z,15.25
2022-09-28T16:21:23.029Z,15.20
2022-09-28T16:26:29.914Z,15.15
2022-09-28T16:31:34.749Z,15.08
2022-09-28T16:36:45.851Z,15.03
2022-09-28T16:41:50.619Z,14.99
2022-09-28T16:46:57.466Z,14.97
2022-09-28T16:52:02.499Z,14.95
2022-09-28T16:57:06.562Z,14.89
2022-09-28T17:02:42.250Z,14.86
2022-09-28T17:07:44.289Z,14.86
2022-09-28T17:12:47.644Z,14.84
2022-09-28T17:17:51.214Z,14.83
2022-09-28T17:22:55.545Z,14.74
2022-09-28T17:27:59.134Z,14.78
2022-09-28T17:33:02.089Z,14.67
2022-09-28T17:38:06.372Z,14.60
2022-09-28T17:43:09.391Z,14.56
2022-09-28T17:48:15.833Z,14.55
2022-09-28T17:53:20.112Z,14.38
2022-09-28T17:58:23.825Z,14.18
2022-09-28T18:03:27.005Z,13.93
2022-09-28T18:08:31.957Z,14.13
2022-09-28T18:13:34.960Z,14.07
2022-09-28T18:18:39.866Z,13.92
2022-09-28T18:23:44.275Z,13.81
2022-09-28T18:28:47.610Z,13.79
2022-09-28T18:33:50.704Z,13.96
2022-09-28T18:38:55.311Z,13.81
2022-09-28T18:44:00.938Z,13.50
2022-09-28T18:49:04.625Z,13.42
2022-09-28T18:54:09.066Z,13.22
2022-09-28T18:59:12.609Z,13.12
2022-09-28T19:04:15.909Z,13.21
2022-09-28T19:09:21.870Z,13.26
2022-09-28T19:14:25.094Z,13.06
2022-09-28T19:19:29.179Z,12.89
2022-09-28T19:24:33.787Z,12.96
2022-09-28T19:29:36.686Z,13.07
2022-09-28T19:34:39.776Z,13.07
2022-09-28T19:39:45.396Z,12.97
2022-09-28T19:44:48.351Z,12.92
2022-09-28T19:49:51.313Z,12.78
2022-09-28T19:54:56.818Z,12.66
2022-09-28T20:00:03.213Z,12.75
2022-09-28T20:05:06.910Z,12.99
2022-09-28T20:10:12.247Z,13.08
2022-09-28T20:15:16.683Z,13.18
2022-09-28T20:20:19.715Z,13.29
2022-09-28T20:25:24.160Z,13.22
2022-09-28T20:30:28.822Z,13.18
2022-09-28T20:35:33.377Z,13.11
2022-09-28T20:40:40.938Z,13.06
2022-09-28T20:45:44.033Z,13.00
2022-09-28T20:50:47.024Z,12.91
2022-09-28T20:55:57.696Z,12.90
2022-09-28T21:01:04.851Z,12.88
2022-09-28T21:06:12.160Z,12.78
2022-09-28T21:11:17.567Z,12.73
2022-09-28T21:16:20.827Z,12.67
2022-09-28T21:21:24.401Z,12.55
2022-09-28T21:26:30.839Z,12.51
2022-09-28T21:31:38.092Z,12.69
2022-09-28T21:36:41.245Z,12.73
2022-09-28T21:41:45.690Z,12.74
2022-09-28T21:46:48.963Z,12.64
2022-09-28T21:51:52.616Z,12.54
2022-09-28T21:56:56.997Z,12.53
2022-09-28T22:02:00.095Z,12.52
2022-09-28T22:07:04.306Z,12.46
2022-09-28T22:12:08.856Z,12.27
2022-09-28T22:17:11.845Z,12.26
2022-09-28T22:22:14.849Z,12.24
2022-09-28T22:27:19.147Z,12.08
2022-09-28T22:32:23.851Z,12.14
2022-09-28T22:37:28.103Z,12.12
2022-09-28T22:42:32.759Z,12.20
2022-09-28T22:47:35.721Z,12.06
2022-09-28T22:52:38.675Z,11.93
2022-09-28T22:57:42.943Z,11.67
2022-09-28T23:02:45.896Z,11.65
2022-09-28T23:07:48.875Z,11.66
2022-09-28T23:12:53.961Z,11.58
2022-09-28T23:17:56.914Z,11.39
2022-09-28T23:22:59.810Z,11.39
2022-09-28T23:28:04.119Z,11.34
2022-09-28T23:33:07.261Z,11.37
2022-09-28T23:38:12.014Z,11.45
2022-09-28T23:43:16.620Z,11.54
2022-09-28T23:48:19.749Z,11.49
2022-09-28T23:53:22.715Z,11.56
2022-09-28T23:58:27.584Z,11.61
